createdAt,value
2019-01-15T00:04:21.120Z,7.60
2019-01-15T00:10:06.743Z,10.33
2019-01-15T00:13:07.839Z,13.57
2019-01-15T00:18:53.731Z,5.57
2019-01-15T00:24:39.781Z,9.33
2019-01-15T00:33:32.840Z,6.30
2019-01-15T00:39:18.556Z,12.33
2019-01-15T00:42:20.065Z,6.70
2019-01-15T00:45:21.071Z,14.77
2019-01-15T00:48:21.528Z,7.43
2019-01-15T00:54:07.399Z,5.97
2019-01-15T00:59:47.871Z,6.73
2019-01-15T01:05:34.091Z,5.17
2019-01-15T01:11:20.527Z,7.10
2019-01-15T01:14:40.221Z,6.47
2019-01-15T01:21:20.276Z,4.13
2019-01-15T01:24:24.514Z,9.50
2019-01-15T01:30:10.663Z,8.73
2019-01-15T01:33:28.973Z,5.43
2019-01-15T01:39:36.155Z,7.33
2019-01-15T01:45:20.936Z,9.13
2019-01-15T01:51:25.537Z,10.03
2019-01-15T01:54:26.343Z,5.97
2019-01-15T02:00:12.278Z,7.63
2019-01-15T02:05:58.336Z,8.70
2019-01-15T02:11:44.478Z,13.47
2019-01-15T02:14:46.008Z,8.73
2019-01-15T02:20:32.322Z,10.40
2019-01-15T02:26:18.481Z,6.90
2019-01-15T02:32:04.636Z,11.43
2019-01-15T02:35:06.090Z,6.67
2019-01-15T02:40:51.183Z,6.93
2019-01-15T02:46:37.158Z,6.10
2019-01-15T02:52:22.536Z,4.17
2019-01-15T02:55:24.195Z,10.37
2019-01-15T03:01:09.361Z,3.17
2019-01-15T03:06:55.300Z,14.43
2019-01-15T03:09:57.904Z,8.20
2019-01-15T03:12:58.796Z,5.37
2019-01-15T03:15:58.219Z,7.20
2019-01-15T03:21:44.158Z,11.50
2019-01-15T03:27:30.816Z,10.83
2019-01-15T03:33:17.224Z,6.03
2019-01-15T03:36:18.697Z,4.43
2019-01-15T03:42:04.514Z,6.53
2019-01-15T03:47:50.014Z,2.47
2019-01-15T03:53:35.463Z,3.87
2019-01-15T03:56:42.124Z,3.90
2019-01-15T04:05:34.067Z,8.23
2019-01-15T04:08:34.763Z,7.30
2019-01-15T04:14:20.507Z,3.93
2019-01-15T04:20:46.418Z,3.13
2019-01-15T04:23:47.542Z,8.70
2019-01-15T04:29:33.258Z,4.87
2019-01-15T04:32:34.843Z,5.90
2019-01-15T04:38:21.341Z,4.47
2019-01-15T04:44:07.787Z,6.07
2019-01-15T04:49:54.143Z,10.27
2019-01-15T04:52:55.547Z,3.43
2019-01-15T04:58:41.646Z,3.53
2019-01-15T05:04:27.566Z,5.62
2019-01-15T05:10:13.111Z,6.73
2019-01-15T05:13:14.350Z,5.53
2019-01-15T05:19:00.099Z,6.57
2019-01-15T05:24:46.438Z,4.93
2019-01-15T05:30:32.844Z,4.92
2019-01-15T05:33:36.403Z,5.23
2019-01-15T05:39:22.138Z,8.67
2019-01-15T05:45:08.618Z,6.03
2019-01-15T05:50:54.380Z,6.57
2019-01-15T05:53:55.721Z,5.70
2019-01-15T05:59:42.325Z,6.53
2019-01-15T06:05:28.141Z,7.05
2019-01-15T06:11:14.755Z,5.17
2019-01-15T06:14:16.376Z,10.70
2019-01-15T06:20:02.422Z,3.20
2019-01-15T06:25:48.006Z,6.90
2019-01-15T06:31:35.125Z,5.63
2019-01-15T06:34:36.567Z,8.47
2019-01-15T06:40:22.603Z,4.70
2019-01-15T06:46:07.987Z,7.70
2019-01-15T06:51:53.635Z,7.80
2019-01-15T06:54:54.851Z,4.33
2019-01-15T07:00:40.890Z,9.00
2019-01-15T07:06:26.743Z,6.17
2019-01-15T07:12:13.202Z,8.43
2019-01-15T07:15:14.880Z,8.20
2019-01-15T07:21:01.429Z,7.23
2019-01-15T07:26:47.513Z,10.70
2019-01-15T07:32:33.312Z,10.13
2019-01-15T07:35:34.046Z,6.77
2019-01-15T07:41:18.934Z,10.23
2019-01-15T07:50:11.510Z,11.03
2019-01-15T07:53:12.131Z,10.23
2019-01-15T07:56:12.831Z,10.07
2019-01-15T08:01:57.678Z,9.47
2019-01-15T08:07:43.338Z,15.33
2019-01-15T08:13:29.923Z,11.30
2019-01-15T08:19:15.675Z,13.30
2019-01-15T08:22:16.910Z,12.30
2019-01-15T08:28:02.515Z,14.10
2019-01-15T08:33:48.879Z,16.23
2019-01-15T08:39:35.274Z,11.20
2019-01-15T08:48:27.063Z,16.63
2019-01-15T08:54:13.069Z,16.33
2019-01-15T08:59:57.969Z,16.90
2019-01-15T09:05:43.884Z,12.37
2019-01-15T09:11:28.745Z,13.83
2019-01-15T09:14:30.291Z,18.07
2019-01-15T09:17:31.450Z,15.13
2019-01-15T09:20:32.259Z,16.17
2019-01-15T09:26:18.059Z,15.03
2019-01-15T09:32:03.789Z,22.07
2019-01-15T09:37:50.564Z,15.60
2019-01-15T09:40:51.829Z,17.80
2019-01-15T09:46:38.490Z,18.77
2019-01-15T09:52:24.210Z,18.97
2019-01-15T09:58:09.958Z,20.63
2019-01-15T10:03:57.174Z,17.10
2019-01-15T10:09:43.554Z,20.70
2019-01-15T10:12:44.184Z,21.50
2019-01-15T10:18:30.466Z,15.97
2019-01-15T10:24:16.098Z,19.73
2019-01-15T10:30:01.812Z,19.63
2019-01-15T10:35:48.008Z,21.47
2019-01-15T10:38:49.615Z,21.90
2019-01-15T10:44:35.574Z,19.73
2019-01-15T10:50:21.330Z,21.70
2019-01-15T10:56:06.806Z,16.80
2019-01-15T11:01:51.739Z,20.77
2019-01-15T11:04:53.261Z,14.80
2019-01-15T11:10:39.695Z,15.43
2019-01-15T11:16:25.479Z,20.30
2019-01-15T11:22:10.957Z,18.80
2019-01-15T11:25:12.093Z,20.97
2019-01-15T11:30:57.671Z,20.43
2019-01-15T11:36:43.969Z,16.37
2019-01-15T11:42:27.347Z,19.97
2019-01-15T11:45:28.075Z,19.60
2019-01-15T11:52:02.266Z,15.20
2019-01-15T11:57:47.003Z,16.50
2019-01-15T12:04:12.710Z,17.97
2019-01-15T12:07:14.175Z,15.50
2019-01-15T12:12:59.149Z,18.33
2019-01-15T12:16:00.685Z,19.53
2019-01-15T12:21:46.531Z,15.90
2019-01-15T12:27:32.963Z,15.67
2019-01-15T12:30:58.127Z,19.30
2019-01-15T12:33:59.292Z,16.63
2019-01-15T12:36:59.933Z,13.03
2019-01-15T12:42:43.483Z,11.53
2019-01-15T12:48:28.219Z,15.60
2019-01-15T12:54:13.916Z,15.63
2019-01-15T13:03:25.024Z,13.17
2019-01-15T13:09:09.698Z,12.60
2019-01-15T13:14:54.918Z,12.33
2019-01-15T13:20:39.827Z,11.70
2019-01-15T13:26:21.091Z,12.33
2019-01-15T13:29:22.719Z,14.63
2019-01-15T13:35:09.390Z,9.07
2019-01-15T13:38:29.642Z,11.83
2019-01-15T13:41:31.333Z,9.10
2019-01-15T13:44:32.864Z,9.47
2019-01-15T13:51:11.089Z,9.83
2019-01-15T13:56:57.430Z,10.90
2019-01-15T14:02:43.013Z,9.57
2019-01-15T14:06:06.620Z,15.27
2019-01-15T14:11:52.581Z,11.27
2019-01-15T14:17:38.757Z,10.20
2019-01-15T14:20:39.156Z,9.37
2019-01-15T14:23:44.822Z,7.27
2019-01-15T14:26:46.479Z,8.70
2019-01-15T14:32:33.124Z,11.43
2019-01-15T14:39:13.992Z,9.00
2019-01-15T14:42:19.602Z,7.80
2019-01-15T14:48:06.407Z,8.27
2019-01-15T14:53:52.237Z,12.87
2019-01-15T14:59:37.823Z,8.67
2019-01-15T15:05:44.513Z,10.33
2019-01-15T15:08:51.103Z,9.87
2019-01-15T15:14:40.175Z,8.30
2019-01-15T15:20:25.179Z,10.33
2019-01-15T15:26:30.010Z,9.47
2019-01-15T15:29:51.482Z,12.43
2019-01-15T15:35:37.249Z,6.23
2019-01-15T15:41:22.187Z,12.07
2019-01-15T15:47:27.824Z,6.93
2019-01-15T15:50:28.216Z,6.80
2019-01-15T15:53:29.789Z,9.60
2019-01-15T15:56:44.281Z,8.57
2019-01-15T16:02:29.266Z,5.43
2019-01-15T16:08:14.062Z,11.12
2019-01-15T16:13:59.285Z,10.27
2019-01-15T16:19:45.726Z,11.83
2019-01-15T16:25:33.066Z,6.97
2019-01-15T16:31:17.842Z,10.93
2019-01-15T16:34:18.996Z,8.47
2019-01-15T16:40:03.933Z,9.37
2019-01-15T16:46:44.576Z,14.70
2019-01-15T16:52:29.827Z,11.90
2019-01-15T16:58:17.166Z,11.77
2019-01-15T17:01:17.443Z,10.53
2019-01-15T17:04:18.622Z,9.60
2019-01-15T17:10:04.842Z,10.57
2019-01-15T17:13:21.395Z,9.37
2019-01-15T17:19:02.020Z,12.70
2019-01-15T17:28:12.203Z,9.80
2019-01-15T17:31:13.795Z,11.83
2019-01-15T17:36:58.793Z,10.77
2019-01-15T17:43:06.371Z,9.43
2019-01-15T17:46:07.676Z,14.77
2019-01-15T17:51:53.230Z,9.03
2019-01-15T17:57:39.370Z,9.60
2019-01-15T18:00:40.132Z,11.33
2019-01-15T18:06:26.319Z,10.70
2019-01-15T18:12:11.575Z,13.17
2019-01-15T18:17:56.753Z,15.32
2019-01-15T18:21:17.135Z,9.27
2019-01-15T18:24:22.973Z,10.40
2019-01-15T18:30:09.264Z,14.93
2019-01-15T18:33:13.726Z,15.07
2019-01-15T18:38:59.442Z,13.63
2019-01-15T18:44:45.207Z,11.60
2019-01-15T18:50:31.541Z,12.30
2019-01-15T18:56:17.158Z,12.53
2019-01-15T19:02:08.139Z,14.77
2019-01-15T19:07:53.662Z,11.30
2019-01-15T19:14:05.524Z,13.20
2019-01-15T19:17:06.970Z,13.17
2019-01-15T19:26:02.907Z,11.77
2019-01-15T19:29:04.140Z,11.77
2019-01-15T19:34:50.549Z,14.10
2019-01-15T19:40:37.002Z,13.67
2019-01-15T19:43:38.400Z,15.83
2019-01-15T19:49:24.059Z,14.70
2019-01-15T19:55:10.057Z,10.97
2019-01-15T20:00:56.245Z,13.50
2019-01-15T20:06:42.030Z,15.07
2019-01-15T20:12:28.410Z,11.30
2019-01-15T20:15:49.902Z,9.00
2019-01-15T20:21:36.498Z,14.70
2019-01-15T20:27:21.898Z,10.37
2019-01-15T20:33:10.503Z,10.07
2019-01-15T20:36:36.602Z,10.47
2019-01-15T20:39:38.173Z,8.90
2019-01-15T20:42:39.065Z,8.93
2019-01-15T20:45:59.006Z,9.80
2019-01-15T20:48:59.767Z,8.20
2019-01-15T20:54:47.516Z,9.70
2019-01-15T21:00:53.510Z,15.63
2019-01-15T21:04:00.011Z,10.80
2019-01-15T21:09:47.739Z,9.30
2019-01-15T21:15:34.101Z,10.33
2019-01-15T21:21:20.663Z,10.07
2019-01-15T21:30:32.446Z,10.73
2019-01-15T21:36:18.080Z,11.33
2019-01-15T21:42:04.638Z,11.37
2019-01-15T21:47:51.051Z,12.30
2019-01-15T21:56:48.123Z,12.23
2019-01-15T21:59:49.803Z,18.30
2019-01-15T22:02:50.569Z,13.20
2019-01-15T22:08:35.459Z,12.40
2019-01-15T22:14:22.015Z,13.70
2019-01-15T22:20:08.436Z,12.73
2019-01-15T22:25:53.710Z,16.33
2019-01-15T22:31:39.642Z,15.37
2019-01-15T22:37:25.470Z,13.37
2019-01-15T22:43:11.910Z,15.77
2019-01-15T22:48:57.638Z,13.43
2019-01-15T22:51:58.710Z,15.63
2019-01-15T22:57:44.105Z,16.23
2019-01-15T23:03:30.526Z,12.67
2019-01-15T23:09:16.195Z,15.43
2019-01-15T23:15:00.704Z,16.90
2019-01-15T23:20:48.703Z,16.60
2019-01-15T23:29:41.113Z,17.07
2019-01-15T23:32:42.648Z,18.87
2019-01-15T23:36:02.234Z,17.83
2019-01-15T23:41:48.106Z,17.63
2019-01-15T23:47:33.821Z,15.53
2019-01-15T23:53:38.062Z,16.00
2019-01-15T23:59:24.131Z,17.37
